Time;durP1;ratioP1;P1;durP2;ratioP2;P2;SDS_P1;SDS_P2;PMS_P1;PMS_P2;Temp;Humidity;BMP_temperature;BMP_pressure;BME280_temperature;BME280_humidity;BME280_pressure;Samples;Min_cycle;Max_cycle;Signal;HPM_P1;HPM_P2
2021/10/18 00:02:16;;;;;;;;;;;25.70;41.60;;;;;;5095784;28;20366;-76
2021/10/18 00:04:41;;;;;;;;;;;25.70;41.60;;;;;;5095888;28;20345;-77
2021/10/18 00:07:07;;;;;;;;;;;25.70;41.60;;;;;;5095617;28;19919;-74
2021/10/18 00:09:35;;;;;;;;;;;25.70;41.60;;;;;;5129195;27;19908;-77
2021/10/18 00:12:00;;;;;;;;;;;25.70;41.70;;;;;;5129021;27;20237;-77
2021/10/18 00:14:26;;;;;;;;;;;25.70;41.70;;;;;;5128803;27;19915;-77
2021/10/18 00:16:54;;;;;;;;;;;25.80;41.70;;;;;;5095683;28;19908;-78
2021/10/18 00:19:19;;;;;;;;;;;25.80;41.80;;;;;;5095517;28;19919;-75
2021/10/18 00:21:45;;;;;;;;;;;25.80;41.80;;;;;;5111772;28;20433;-75
2021/10/18 00:24:10;;;;;;;;;;;25.80;41.80;;;;;;5112711;28;19919;-75
2021/10/18 00:26:36;;;;;;;;;;;25.90;41.90;;;;;;5096455;28;19908;-79
2021/10/18 00:29:04;;;;;;;;;;;25.90;41.90;;;;;;5094855;28;20214;-74
2021/10/18 00:31:31;;;;;;;;;;;25.90;42.00;;;;;;5095389;28;19912;-75
2021/10/18 00:34:02;;;;;;;;;;;25.80;42.10;;;;;;5127819;27;19908;-77
2021/10/18 00:36:32;;;;;;;;;;;25.90;42.10;;;;;;5095171;28;19916;-77
2021/10/18 00:38:57;;;;;;;;;;;25.90;42.10;;;;;;5127996;27;19908;-79
2021/10/18 00:41:25;;;;;;;;;;;25.90;42.20;;;;;;5094772;28;19935;-77
2021/10/18 00:43:51;;;;;;;;;;;25.90;42.60;;;;;;5097062;28;19919;-76
2021/10/18 00:46:21;;;;;;;;;;;25.90;42.90;;;;;;5118601;28;20230;-78
2021/10/18 00:48:47;;;;;;;;;;;25.90;43.20;;;;;;5135384;27;19915;-75
2021/10/18 00:51:12;;;;;;;;;;;25.90;44.60;;;;;;5136257;27;20245;-77
2021/10/18 00:53:40;;;;;;;;;;;25.90;44.30;;;;;;5138513;27;20597;-77
2021/10/18 00:56:06;;;;;;;;;;;26.00;44.90;;;;;;5138471;27;19908;-77
2021/10/18 00:58:36;;;;;;;;;;;26.00;45.40;;;;;;5104906;28;19908;-75
2021/10/18 01:01:01;;;;;;;;;;;26.00;45.90;;;;;;5137678;27;20352;-77
2021/10/18 01:03:27;;;;;;;;;;;26.00;47.20;;;;;;5122015;28;19919;-75
2021/10/18 01:05:52;;;;;;;;;;;26.10;48.30;;;;;;5137415;27;19916;-74
2021/10/18 01:08:18;;;;;;;;;;;26.10;48.50;;;;;;5137191;27;20374;-76
2021/10/18 01:10:43;;;;;;;;;;;26.10;48.00;;;;;;5120777;28;19934;-76
2021/10/18 01:13:11;;;;;;;;;;;26.10;47.50;;;;;;5120614;28;20010;-77
2021/10/18 01:15:37;;;;;;;;;;;26.10;47.20;;;;;;5104310;28;19907;-76
2021/10/18 01:18:03;;;;;;;;;;;26.10;46.80;;;;;;5120043;28;19919;-78
2021/10/18 01:20:31;;;;;;;;;;;26.10;46.60;;;;;;5102071;28;19923;-78
2021/10/18 01:22:59;;;;;;;;;;;26.10;46.60;;;;;;5100688;28;19923;-76
2021/10/18 01:25:25;;;;;;;;;;;26.10;46.50;;;;;;5101426;28;19908;-80
2021/10/18 01:27:50;;;;;;;;;;;26.10;46.50;;;;;;5101131;28;19919;-78
2021/10/18 01:30:16;;;;;;;;;;;26.10;46.40;;;;;;5101091;28;19908;-81
2021/10/18 01:32:43;;;;;;;;;;;26.10;46.30;;;;;;5101816;28;19918;-76
2021/10/18 01:35:08;;;;;;;;;;;26.10;46.20;;;;;;5101945;28;20317;-78
2021/10/18 01:37:34;;;;;;;;;;;26.10;46.10;;;;;;5104690;28;19956;-76
2021/10/18 01:39:59;;;;;;;;;;;26.10;46.00;;;;;;5114466;28;19933;-75
2021/10/18 01:42:25;;;;;;;;;;;26.10;45.90;;;;;;5134665;28;19999;-78
2021/10/18 01:44:51;;;;;;;;;;;26.10;45.80;;;;;;5153835;27;19926;-76
2021/10/18 01:47:16;;;;;;;;;;;26.10;45.80;;;;;;5139943;27;19908;-77
2021/10/18 01:49:42;;;;;;;;;;;26.10;45.70;;;;;;5128360;28;19975;-77
2021/10/18 01:52:10;;;;;;;;;;;26.10;45.70;;;;;;5109179;28;19912;-76
2021/10/18 01:54:35;;;;;;;;;;;26.10;45.70;;;;;;5149659;27;19923;-75
2021/10/18 01:57:01;;;;;;;;;;;26.10;45.70;;;;;;5104709;28;20248;-78
2021/10/18 01:59:28;;;;;;;;;;;26.10;45.70;;;;;;5121234;28;20244;-77
2021/10/18 02:01:55;;;;;;;;;;;26.10;45.70;;;;;;5142585;27;19920;-75
2021/10/18 02:04:23;;;;;;;;;;;26.10;45.60;;;;;;5102559;28;19908;-76
2021/10/18 02:06:49;;;;;;;;;;;26.10;45.70;;;;;;5101887;28;19968;-78
2021/10/18 02:09:14;;;;;;;;;;;26.10;45.60;;;;;;5099342;28;20322;-75
2021/10/18 02:11:42;;;;;;;;;;;26.10;45.60;;;;;;5132197;27;19908;-76
2021/10/18 02:14:08;;;;;;;;;;;26.10;45.60;;;;;;5131077;27;19908;-76
2021/10/18 02:16:33;;;;;;;;;;;26.10;45.50;;;;;;5097946;28;19919;-78
2021/10/18 02:18:59;;;;;;;;;;;26.10;45.60;;;;;;5131077;27;20291;-78
2021/10/18 02:21:27;;;;;;;;;;;26.10;45.50;;;;;;5096541;28;19939;-75
2021/10/18 02:23:52;;;;;;;;;;;26.20;45.60;;;;;;5130369;27;20340;-76
2021/10/18 02:26:20;;;;;;;;;;;26.10;45.50;;;;;;5096862;28;20143;-77
2021/10/18 02:28:46;;;;;;;;;;;26.10;45.40;;;;;;5097423;28;19973;-77
2021/10/18 02:31:11;;;;;;;;;;;26.10;45.40;;;;;;5097491;28;19908;-77
2021/10/18 02:33:39;;;;;;;;;;;26.10;45.40;;;;;;5096818;28;19931;-79
2021/10/18 02:36:04;;;;;;;;;;;26.10;45.40;;;;;;5129867;27;19924;-77
2021/10/18 02:38:32;;;;;;;;;;;26.10;45.40;;;;;;5097407;28;19972;-78
2021/10/18 02:41:00;;;;;;;;;;;26.10;45.40;;;;;;5113210;28;20028;-76
2021/10/18 02:43:26;;;;;;;;;;;26.10;45.40;;;;;;5097374;28;19920;-77
2021/10/18 02:45:54;;;;;;;;;;;26.10;45.40;;;;;;5097084;28;19915;-77
2021/10/18 02:48:21;;;;;;;;;;;26.10;45.40;;;;;;5097023;28;19943;-77
2021/10/18 02:50:50;;;;;;;;;;;26.10;45.40;;;;;;5112795;28;20361;-79
2021/10/18 02:53:16;;;;;;;;;;;26.10;45.40;;;;;;5129233;27;20337;-79
2021/10/18 02:55:44;;;;;;;;;;;26.10;45.50;;;;;;5096949;28;20053;-77
2021/10/18 02:58:09;;;;;;;;;;;26.10;45.50;;;;;;5096750;28;19908;-77
2021/10/18 03:00:37;;;;;;;;;;;26.10;45.50;;;;;;5130810;27;19915;-78
2021/10/18 03:03:04;;;;;;;;;;;26.10;45.50;;;;;;5129449;27;19912;-77
2021/10/18 03:05:30;;;;;;;;;;;26.10;45.40;;;;;;5129905;27;19909;-79
2021/10/18 03:07:55;;;;;;;;;;;26.10;45.40;;;;;;5128752;27;19918;-77
2021/10/18 03:10:21;;;;;;;;;;;26.10;45.40;;;;;;5095552;28;19995;-77
2021/10/18 03:12:46;;;;;;;;;;;26.10;45.50;;;;;;5096510;28;20268;-79
2021/10/18 03:15:12;;;;;;;;;;;26.10;45.50;;;;;;5096426;28;19908;-75
2021/10/18 03:17:40;;;;;;;;;;;26.10;45.40;;;;;;5112581;28;20012;-76
2021/10/18 03:20:06;;;;;;;;;;;26.10;45.40;;;;;;5129716;27;20331;-76
2021/10/18 03:22:31;;;;;;;;;;;26.10;45.40;;;;;;5096132;28;20028;-79
2021/10/18 03:24:57;;;;;;;;;;;26.10;45.40;;;;;;5112257;28;19995;-77
2021/10/18 03:27:22;;;;;;;;;;;26.10;45.40;;;;;;5096277;28;19908;-77
2021/10/18 03:29:48;;;;;;;;;;;26.10;45.40;;;;;;5095704;28;19912;-76
2021/10/18 03:32:16;;;;;;;;;;;26.10;45.40;;;;;;5095341;28;19908;-75
2021/10/18 03:34:42;;;;;;;;;;;26.10;45.40;;;;;;5096184;28;19969;-76
2021/10/18 03:37:07;;;;;;;;;;;26.10;45.40;;;;;;5129427;27;19916;-73
2021/10/18 03:39:33;;;;;;;;;;;26.10;45.40;;;;;;5096083;28;19974;-76
2021/10/18 03:42:01;;;;;;;;;;;26.10;45.40;;;;;;5129149;27;20030;-76
2021/10/18 03:44:29;;;;;;;;;;;26.10;45.40;;;;;;5129209;27;19916;-76
2021/10/18 03:46:57;;;;;;;;;;;26.10;45.40;;;;;;5096189;28;19940;-77
2021/10/18 03:49:22;;;;;;;;;;;26.10;45.40;;;;;;5095041;28;19919;-77
2021/10/18 03:51:48;;;;;;;;;;;26.10;45.40;;;;;;5111952;28;19908;-75
2021/10/18 03:54:13;;;;;;;;;;;26.10;45.30;;;;;;5094860;28;19920;-78
2021/10/18 03:56:41;;;;;;;;;;;26.10;45.30;;;;;;5095993;28;19912;-76
2021/10/18 03:59:06;;;;;;;;;;;26.10;45.30;;;;;;5129120;27;19912;-77
2021/10/18 04:01:32;;;;;;;;;;;26.10;45.50;;;;;;5095669;28;20397;-78
2021/10/18 04:03:57;;;;;;;;;;;26.10;45.50;;;;;;5095873;28;20000;-77
2021/10/18 04:06:25;;;;;;;;;;;26.10;45.50;;;;;;5129259;27;19908;-81
2021/10/18 04:08:53;;;;;;;;;;;26.10;45.50;;;;;;5094808;28;19908;-77
2021/10/18 04:11:19;;;;;;;;;;;26.10;45.50;;;;;;5095750;28;19919;-82
2021/10/18 04:13:47;;;;;;;;;;;26.00;45.40;;;;;;5128824;27;19908;-78
2021/10/18 04:16:15;;;;;;;;;;;26.00;45.40;;;;;;5128753;27;19908;-79
2021/10/18 04:18:40;;;;;;;;;;;26.10;45.40;;;;;;5111322;28;19951;-79
2021/10/18 04:21:06;;;;;;;;;;;26.00;45.40;;;;;;5128947;27;19908;-77
2021/10/18 04:23:32;;;;;;;;;;;26.00;45.40;;;;;;5129687;27;19983;-83
2021/10/18 04:25:57;;;;;;;;;;;26.10;45.40;;;;;;5112135;28;20329;-78
2021/10/18 04:28:23;;;;;;;;;;;26.10;45.40;;;;;;5111598;28;19908;-77
2021/10/18 04:30:48;;;;;;;;;;;26.00;45.30;;;;;;5128609;27;19912;-77
2021/10/18 04:33:14;;;;;;;;;;;26.10;45.30;;;;;;5111431;28;19919;-78
2021/10/18 04:35:41;;;;;;;;;;;26.00;45.20;;;;;;5095308;28;19919;-77
2021/10/18 04:38:07;;;;;;;;;;;26.00;45.20;;;;;;5094254;28;19916;-78
2021/10/18 04:40:33;;;;;;;;;;;26.10;45.20;;;;;;5111210;28;19919;-77
2021/10/18 04:42:58;;;;;;;;;;;26.10;45.20;;;;;;5111434;28;20359;-76
2021/10/18 04:45:24;;;;;;;;;;;26.10;45.20;;;;;;5095164;28;19914;-76
2021/10/18 04:47:51;;;;;;;;;;;26.10;45.20;;;;;;5111471;28;19908;-77
2021/10/18 04:50:17;;;;;;;;;;;26.10;45.80;;;;;;5095264;28;19908;-75
2021/10/18 04:52:43;;;;;;;;;;;26.10;45.20;;;;;;5094503;28;19989;-78
2021/10/18 04:55:08;;;;;;;;;;;26.10;45.10;;;;;;5128263;28;19911;-77
2021/10/18 04:57:37;;;;;;;;;;;26.10;45.10;;;;;;5094666;28;19948;-75
2021/10/18 05:00:03;;;;;;;;;;;26.10;45.10;;;;;;5110991;28;19918;-76
2021/10/18 05:02:28;;;;;;;;;;;26.10;45.10;;;;;;5094997;28;20234;-78
2021/10/18 05:04:56;;;;;;;;;;;26.10;45.10;;;;;;5095148;28;19916;-77
2021/10/18 05:07:22;;;;;;;;;;;26.10;45.00;;;;;;5127963;28;19925;-75
2021/10/18 05:09:47;;;;;;;;;;;26.10;45.00;;;;;;5094078;28;20020;-78
2021/10/18 05:12:13;;;;;;;;;;;26.10;45.00;;;;;;5111604;28;19907;-75
2021/10/18 05:14:38;;;;;;;;;;;26.10;45.00;;;;;;5111569;28;19923;-78
2021/10/18 05:17:04;;;;;;;;;;;26.10;45.00;;;;;;5128204;28;19961;-77
2021/10/18 05:19:31;;;;;;;;;;;26.10;45.00;;;;;;5128275;28;19908;-78
2021/10/18 05:21:57;;;;;;;;;;;26.10;45.00;;;;;;5095239;28;19938;-80
2021/10/18 05:24:25;;;;;;;;;;;26.10;45.00;;;;;;5094780;28;19912;-79
2021/10/18 05:26:50;;;;;;;;;;;26.00;44.90;;;;;;5094858;28;20005;-76
2021/10/18 05:29:16;;;;;;;;;;;26.00;44.90;;;;;;5094890;28;20360;-78
2021/10/18 05:31:41;;;;;;;;;;;26.10;44.90;;;;;;5130878;27;19999;-82
2021/10/18 05:34:09;;;;;;;;;;;26.00;42.20;;;;;;5115015;28;19908;-78
2021/10/18 05:36:35;;;;;;;;;;;25.40;35.50;;;;;;5098295;28;19963;-76
2021/10/18 05:39:00;;;;;;;;;;;24.60;35.40;;;;;;5114377;28;19909;-77
2021/10/18 05:41:26;;;;;;;;;;;23.80;36.40;;;;;;5098374;28;19927;-78
2021/10/18 05:43:51;;;;;;;;;;;23.10;37.20;;;;;;5114725;28;19991;-77
2021/10/18 05:46:17;;;;;;;;;;;22.50;38.20;;;;;;5098331;28;19961;-78
2021/10/18 05:48:42;;;;;;;;;;;21.90;39.40;;;;;;5131969;27;19908;-77
2021/10/18 05:51:08;;;;;;;;;;;21.50;41.20;;;;;;5097355;28;19919;-77
2021/10/18 05:53:33;;;;;;;;;;;22.10;41.40;;;;;;5097307;28;19919;-74
2021/10/18 05:55:59;;;;;;;;;;;22.70;41.30;;;;;;5131207;27;20276;-76
2021/10/18 05:58:27;;;;;;;;;;;23.20;41.10;;;;;;5096936;28;19916;-76
2021/10/18 06:00:52;;;;;;;;;;;23.60;40.80;;;;;;5114610;28;20249;-77
2021/10/18 06:03:18;;;;;;;;;;;23.90;40.40;;;;;;5096971;28;19912;-77
2021/10/18 06:05:44;;;;;;;;;;;24.10;40.20;;;;;;5131484;27;19999;-76
2021/10/18 06:08:11;;;;;;;;;;;24.30;40.10;;;;;;5131066;27;19919;-77
2021/10/18 06:10:36;;;;;;;;;;;24.40;40.20;;;;;;5131110;27;19962;-78
2021/10/18 06:13:02;;;;;;;;;;;24.60;42.80;;;;;;5097779;28;20313;-78
2021/10/18 06:15:27;;;;;;;;;;;24.70;47.60;;;;;;5130948;27;19916;-76
2021/10/18 06:17:53;;;;;;;;;;;24.80;48.10;;;;;;5096866;28;19918;-76
2021/10/18 06:20:21;;;;;;;;;;;24.90;48.40;;;;;;5131099;27;19924;-78
2021/10/18 06:22:47;;;;;;;;;;;25.00;48.50;;;;;;5097785;28;19974;-79
2021/10/18 06:25:12;;;;;;;;;;;25.00;47.00;;;;;;5097809;28;19948;-77
2021/10/18 06:27:40;;;;;;;;;;;25.10;46.50;;;;;;5113701;28;19969;-76
2021/10/18 06:30:06;;;;;;;;;;;25.10;46.10;;;;;;5131913;27;19919;-74
2021/10/18 06:32:32;;;;;;;;;;;25.10;45.90;;;;;;5131983;27;19912;-77
2021/10/18 06:35:00;;;;;;;;;;;25.20;45.60;;;;;;5090918;28;19908;-74
2021/10/18 06:37:26;;;;;;;;;;;25.20;45.40;;;;;;5098258;28;20252;-75
2021/10/18 06:39:52;;;;;;;;;;;25.30;45.20;;;;;;5098578;28;19995;-78
2021/10/18 06:42:17;;;;;;;;;;;25.30;45.10;;;;;;5092395;28;19917;-76
2021/10/18 06:44:43;;;;;;;;;;;25.30;45.00;;;;;;5077209;28;20284;-82
2021/10/18 06:47:17;;;;;;;;;;;25.40;44.90;;;;;;5093283;28;19908;-78
2021/10/18 06:49:42;;;;;;;;;;;25.40;44.90;;;;;;5100311;28;20340;-77
2021/10/18 06:52:10;;;;;;;;;;;25.40;45.00;;;;;;5097165;28;19957;-79
2021/10/18 06:54:41;;;;;;;;;;;25.50;45.10;;;;;;5097569;28;20291;-78
2021/10/18 06:57:11;;;;;;;;;;;25.50;45.10;;;;;;5102672;28;20306;-80
2021/10/18 06:59:39;;;;;;;;;;;25.50;45.30;;;;;;5097260;28;20329;-81
2021/10/18 07:02:04;;;;;;;;;;;25.60;45.60;;;;;;5096683;28;19920;-78
2021/10/18 07:04:30;;;;;;;;;;;25.60;45.80;;;;;;5097704;28;19972;-79
2021/10/18 07:06:58;;;;;;;;;;;25.70;45.70;;;;;;5097693;28;19908;-80
2021/10/18 07:09:24;;;;;;;;;;;25.80;45.80;;;;;;5098213;28;19908;-78
2021/10/18 07:11:50;;;;;;;;;;;25.80;45.40;;;;;;5080295;28;20329;-80
2021/10/18 07:14:15;;;;;;;;;;;25.90;45.50;;;;;;5096930;28;19908;-80
2021/10/18 07:16:43;;;;;;;;;;;25.90;45.70;;;;;;5097500;28;19980;-74
2021/10/18 07:19:09;;;;;;;;;;;26.10;45.90;;;;;;5096761;28;19923;-78
2021/10/18 07:21:36;;;;;;;;;;;26.10;46.00;;;;;;5095857;28;19912;-82
2021/10/18 07:24:05;;;;;;;;;;;26.20;46.20;;;;;;5095850;28;19932;-80
2021/10/18 07:26:34;;;;;;;;;;;26.20;46.20;;;;;;5095603;28;19908;-78
2021/10/18 07:29:02;;;;;;;;;;;26.30;45.70;;;;;;5095580;28;19912;-80
2021/10/18 07:31:27;;;;;;;;;;;26.30;45.10;;;;;;5100377;28;19999;-79
2021/10/18 07:33:57;;;;;;;;;;;26.30;45.30;;;;;;5083869;28;19944;-79
2021/10/18 07:36:27;;;;;;;;;;;26.40;45.40;;;;;;5101174;28;20018;-79
2021/10/18 07:38:55;;;;;;;;;;;26.50;45.20;;;;;;5099979;28;19908;-78
2021/10/18 07:41:20;;;;;;;;;;;26.60;45.30;;;;;;5096652;28;19991;-76
2021/10/18 07:43:46;;;;;;;;;;;26.50;44.70;;;;;;5095176;28;20003;-80
2021/10/18 07:46:11;;;;;;;;;;;26.60;44.80;;;;;;5095674;28;20360;-76
2021/10/18 07:48:37;;;;;;;;;;;26.60;45.10;;;;;;5096209;28;20333;-76
2021/10/18 07:51:02;;;;;;;;;;;26.70;44.20;;;;;;5095764;28;20015;-77
2021/10/18 07:53:28;;;;;;;;;;;26.70;43.90;;;;;;5095281;28;20345;-77
2021/10/18 07:55:56;;;;;;;;;;;26.70;43.70;;;;;;5095446;28;19914;-80
2021/10/18 07:58:21;;;;;;;;;;;26.70;43.60;;;;;;5078873;28;20007;-78
2021/10/18 08:00:47;;;;;;;;;;;26.70;43.60;;;;;;5096499;28;19954;-79
2021/10/18 08:03:15;;;;;;;;;;;26.80;43.40;;;;;;5095315;28;19958;-78
2021/10/18 08:05:43;;;;;;;;;;;26.80;43.20;;;;;;5096357;28;19931;-79
2021/10/18 08:08:13;;;;;;;;;;;26.90;45.70;;;;;;5079282;28;20317;-77
2021/10/18 08:10:41;;;;;;;;;;;26.90;45.70;;;;;;5095888;28;19912;-81
2021/10/18 08:13:09;;;;;;;;;;;26.90;45.60;;;;;;5083150;28;19908;-80
2021/10/18 08:15:35;;;;;;;;;;;27.00;45.20;;;;;;5096063;28;19918;-82
2021/10/18 08:18:00;;;;;;;;;;;27.10;45.10;;;;;;5078135;28;19927;-83
2021/10/18 08:20:26;;;;;;;;;;;27.10;44.90;;;;;;5095657;28;19908;-82
2021/10/18 08:22:51;;;;;;;;;;;27.10;44.80;;;;;;5080830;28;19923;-78
2021/10/18 08:25:18;;;;;;;;;;;27.10;44.70;;;;;;5096550;28;19907;-80
2021/10/18 08:27:43;;;;;;;;;;;27.20;44.70;;;;;;5079700;28;19908;-80
2021/10/18 08:30:09;;;;;;;;;;;27.20;44.60;;;;;;5097534;28;20010;-78
2021/10/18 08:32:40;;;;;;;;;;;27.20;44.60;;;;;;5097469;28;19908;-75
2021/10/18 08:35:09;;;;;;;;;;;27.20;43.00;;;;;;5096246;28;19919;-74
2021/10/18 08:40:20;;;;;;;;;;;25.90;39.10;;;;;;5095539;28;20011;-76
2021/10/18 08:45:29;;;;;;;;;;;23.80;40.90;;;;;;5095833;28;20241;-76
2021/10/18 08:47:57;;;;;;;;;;;23.70;41.90;;;;;;5095397;28;20329;-72
2021/10/18 08:50:23;;;;;;;;;;;24.00;41.60;;;;;;5096955;28;19908;-71
2021/10/18 08:52:48;;;;;;;;;;;24.20;40.90;;;;;;5101100;28;19909;-76
2021/10/18 08:55:16;;;;;;;;;;;24.40;40.50;;;;;;5098059;28;20016;-78
2021/10/18 08:57:44;;;;;;;;;;;24.50;40.30;;;;;;5097902;28;19908;-77
2021/10/18 09:00:28;;;;;;;;;;;24.60;40.10;;;;;;5080740;28;19912;-77
2021/10/18 09:02:55;;;;;;;;;;;25.00;40.50;;;;;;5097682;28;19916;-75
2021/10/18 09:05:21;;;;;;;;;;;25.30;40.70;;;;;;5081929;28;19915;-76
2021/10/18 09:07:49;;;;;;;;;;;25.50;40.60;;;;;;5101107;28;19908;-76
2021/10/18 09:10:14;;;;;;;;;;;25.70;40.60;;;;;;5100700;28;19998;-76
2021/10/18 09:12:44;;;;;;;;;;;25.90;40.60;;;;;;5100445;28;19958;-75
2021/10/18 09:15:16;;;;;;;;;;;26.10;40.60;;;;;;5104634;28;19912;-78
2021/10/18 09:17:44;;;;;;;;;;;26.20;40.60;;;;;;5110492;28;19908;-76
2021/10/18 09:20:21;;;;;;;;;;;26.40;40.70;;;;;;5109807;28;19971;-78
2021/10/18 09:22:46;;;;;;;;;;;26.50;40.60;;;;;;5089481;28;19916;-78
2021/10/18 09:25:12;;;;;;;;;;;26.50;40.70;;;;;;5089902;28;20316;-77
2021/10/18 09:27:40;;;;;;;;;;;26.50;40.70;;;;;;5106790;28;19969;-79
2021/10/18 09:30:05;;;;;;;;;;;26.60;40.70;;;;;;5084527;28;19912;-82
2021/10/18 09:32:31;;;;;;;;;;;26.70;40.90;;;;;;5100224;28;19931;-80
2021/10/18 09:35:05;;;;;;;;;;;26.70;40.80;;;;;;5082996;28;19926;-80
2021/10/18 09:37:38;;;;;;;;;;;26.70;40.90;;;;;;5100108;28;19916;-82
2021/10/18 09:40:04;;;;;;;;;;;26.70;41.10;;;;;;5091172;28;19930;-78
2021/10/18 09:42:29;;;;;;;;;;;26.80;41.00;;;;;;5107079;28;19920;-83
2021/10/18 10:54:10;;;;;;;;;;;27.00;42.00;;;;;;5096444;28;20256;-81
2021/10/18 10:56:46;;;;;;;;;;;27.00;42.00;;;;;;5096334;28;19908;-78
2021/10/18 10:59:20;;;;;;;;;;;27.00;42.00;;;;;;5079961;28;19909;-79
2021/10/18 11:01:46;;;;;;;;;;;27.00;42.00;;;;;;5096059;28;19912;-80
2021/10/18 11:04:30;;;;;;;;;;;27.00;42.00;;;;;;5096699;28;19965;-79
2021/10/18 11:06:59;;;;;;;;;;;27.00;42.00;;;;;;5096995;28;19908;-80
2021/10/18 11:09:52;;;;;;;;;;;27.00;42.10;;;;;;5078945;28;19951;-80
2021/10/18 11:12:19;;;;;;;;;;;27.00;42.10;;;;;;5094628;28;19946;-77
2021/10/18 11:14:57;;;;;;;;;;;27.10;42.20;;;;;;5096676;28;19908;-77
2021/10/18 11:17:26;;;;;;;;;;;27.10;42.20;;;;;;5097461;28;19916;-80
2021/10/18 11:19:52;;;;;;;;;;;27.10;42.20;;;;;;5079001;28;19916;-80
2021/10/18 11:22:23;;;;;;;;;;;27.10;42.20;;;;;;5096329;28;20229;-81
2021/10/18 11:24:49;;;;;;;;;;;27.00;42.20;;;;;;5095754;28;19974;-79
2021/10/18 11:27:14;;;;;;;;;;;27.00;42.90;;;;;;5078651;28;19916;-78
2021/10/18 11:29:40;;;;;;;;;;;27.00;42.40;;;;;;5094509;28;19965;-80
2021/10/18 11:32:09;;;;;;;;;;;27.00;42.50;;;;;;5078450;28;20220;-78
2021/10/18 11:34:34;;;;;;;;;;;27.00;42.50;;;;;;5096547;28;19908;-80
2021/10/18 11:37:00;;;;;;;;;;;27.00;42.50;;;;;;5095962;28;19931;-80
2021/10/18 11:39:28;;;;;;;;;;;27.00;42.50;;;;;;5078469;28;19921;-79
2021/10/18 11:42:04;;;;;;;;;;;27.00;42.60;;;;;;5095374;28;19920;-80
2021/10/18 11:44:48;;;;;;;;;;;27.00;42.60;;;;;;5096026;28;20325;-79
2021/10/18 11:47:32;;;;;;;;;;;27.00;42.60;;;;;;5096226;28;19915;-78
2021/10/18 11:50:07;;;;;;;;;;;27.00;42.70;;;;;;5092959;28;19919;-79
2021/10/18 11:52:35;;;;;;;;;;;27.00;42.60;;;;;;5086522;28;19995;-80
2021/10/18 11:55:03;;;;;;;;;;;27.00;42.50;;;;;;5087777;28;20400;-78
2021/10/18 11:57:31;;;;;;;;;;;27.00;42.50;;;;;;5092597;28;20322;-77
2021/10/18 11:59:57;;;;;;;;;;;27.00;42.50;;;;;;5089392;28;20355;-79
2021/10/18 12:02:23;;;;;;;;;;;27.00;42.50;;;;;;5128985;27;19912;-77
2021/10/18 12:04:57;;;;;;;;;;;27.00;42.60;;;;;;5129089;27;19919;-76
2021/10/18 12:07:42;;;;;;;;;;;27.00;42.70;;;;;;5089166;28;19908;-79
2021/10/18 12:10:26;;;;;;;;;;;27.10;42.80;;;;;;5075604;28;20244;-79
2021/10/18 12:13:05;;;;;;;;;;;27.10;42.90;;;;;;5108400;28;19909;-77
2021/10/18 12:15:33;;;;;;;;;;;27.10;42.90;;;;;;5091516;28;20344;-79
2021/10/18 12:18:01;;;;;;;;;;;27.10;42.80;;;;;;5075295;28;19908;-77
2021/10/18 12:20:29;;;;;;;;;;;27.10;42.80;;;;;;5107717;28;20392;-80
2021/10/18 12:22:57;;;;;;;;;;;27.10;42.90;;;;;;5107483;28;19913;-76
2021/10/18 12:25:23;;;;;;;;;;;27.10;42.90;;;;;;5088406;28;20346;-80
2021/10/18 12:27:48;;;;;;;;;;;27.20;42.90;;;;;;5111809;28;19974;-82
2021/10/18 12:30:33;;;;;;;;;;;27.10;42.80;;;;;;5094449;28;20347;-78
2021/10/18 12:33:10;;;;;;;;;;;27.20;42.90;;;;;;5095282;28;20298;-80
2021/10/18 12:35:35;;;;;;;;;;;27.20;42.90;;;;;;5095005;28;19908;-76
2021/10/18 12:38:08;;;;;;;;;;;27.20;42.90;;;;;;5128483;27;20336;-77
2021/10/18 12:40:36;;;;;;;;;;;27.20;42.80;;;;;;5128169;27;19908;-78
2021/10/18 12:43:04;;;;;;;;;;;27.20;42.90;;;;;;5112190;28;19927;-79
2021/10/18 12:45:34;;;;;;;;;;;27.20;43.50;;;;;;5132369;28;19912;-79
2021/10/18 12:48:02;;;;;;;;;;;27.20;42.90;;;;;;5115289;28;19912;-79
2021/10/18 12:50:31;;;;;;;;;;;27.30;43.00;;;;;;5112852;28;19916;-77
2021/10/18 12:52:57;;;;;;;;;;;27.20;42.90;;;;;;5130381;28;19966;-80
2021/10/18 12:55:38;;;;;;;;;;;27.30;43.00;;;;;;5113775;28;19997;-79
2021/10/18 12:58:04;;;;;;;;;;;27.30;43.00;;;;;;5096569;28;19912;-80
2021/10/18 13:00:31;;;;;;;;;;;27.20;42.90;;;;;;5108764;28;20374;-77
2021/10/18 13:02:57;;;;;;;;;;;27.20;43.00;;;;;;5074724;28;19912;-78
2021/10/18 13:05:25;;;;;;;;;;;27.20;43.00;;;;;;5091344;28;19909;-80
2021/10/18 13:07:51;;;;;;;;;;;27.20;43.00;;;;;;5108004;28;20003;-77
2021/10/18 13:10:17;;;;;;;;;;;27.20;43.00;;;;;;5090796;28;19963;-77
2021/10/18 13:12:43;;;;;;;;;;;27.20;43.00;;;;;;5074748;28;20341;-78
2021/10/18 13:15:09;;;;;;;;;;;27.20;43.10;;;;;;5090625;28;19927;-77
2021/10/18 13:17:36;;;;;;;;;;;27.20;43.10;;;;;;5074703;28;19908;-78
2021/10/18 13:20:02;;;;;;;;;;;27.20;43.20;;;;;;5106810;28;19909;-77
2021/10/18 13:22:30;;;;;;;;;;;27.20;43.20;;;;;;5073867;28;20359;-79
2021/10/18 13:25:00;;;;;;;;;;;27.20;43.20;;;;;;5107165;28;19965;-78
2021/10/18 13:27:26;;;;;;;;;;;27.20;43.20;;;;;;5073812;28;19908;-76
2021/10/18 13:29:51;;;;;;;;;;;27.20;43.20;;;;;;5090426;28;19919;-77
2021/10/18 13:32:17;;;;;;;;;;;27.20;43.20;;;;;;5107585;28;19908;-77
2021/10/18 13:34:43;;;;;;;;;;;27.20;43.30;;;;;;5074041;28;20293;-79
2021/10/18 13:37:09;;;;;;;;;;;27.20;43.30;;;;;;5106998;28;19932;-78
2021/10/18 13:39:35;;;;;;;;;;;27.20;43.30;;;;;;5107273;28;19938;-76
2021/10/18 13:42:03;;;;;;;;;;;27.20;43.40;;;;;;5073690;28;19920;-80
2021/10/18 13:44:29;;;;;;;;;;;27.20;43.40;;;;;;5106654;28;19919;-76
2021/10/18 13:46:54;;;;;;;;;;;27.20;43.40;;;;;;5073709;28;19909;-80
2021/10/18 13:49:20;;;;;;;;;;;27.20;43.30;;;;;;5107604;28;19912;-77
2021/10/18 13:51:47;;;;;;;;;;;27.20;43.40;;;;;;5075363;28;20348;-78
2021/10/18 13:54:13;;;;;;;;;;;27.20;43.30;;;;;;5110580;28;19920;-77
2021/10/18 13:56:38;;;;;;;;;;;27.20;43.40;;;;;;5111053;28;19909;-78
2021/10/18 13:59:04;;;;;;;;;;;27.20;43.40;;;;;;5120664;27;19908;-78
2021/10/18 14:01:35;;;;;;;;;;;27.20;43.40;;;;;;5114022;28;19943;-80
2021/10/18 14:04:00;;;;;;;;;;;27.30;43.40;;;;;;5130834;27;20285;-81
2021/10/18 14:06:26;;;;;;;;;;;27.30;43.40;;;;;;5114029;28;19919;-81
2021/10/18 14:08:52;;;;;;;;;;;27.30;43.50;;;;;;5130536;27;19990;-77
2021/10/18 14:11:19;;;;;;;;;;;27.30;43.40;;;;;;5097471;28;19908;-79
2021/10/18 14:13:45;;;;;;;;;;;27.30;43.50;;;;;;5096917;28;19930;-76
2021/10/18 14:16:11;;;;;;;;;;;27.30;43.40;;;;;;5114267;28;19919;-78
2021/10/18 14:18:36;;;;;;;;;;;27.30;43.50;;;;;;5096499;28;20328;-77
2021/10/18 14:21:04;;;;;;;;;;;27.30;43.50;;;;;;5096575;28;19907;-78
2021/10/18 14:23:33;;;;;;;;;;;27.30;43.40;;;;;;5129840;27;19916;-78
2021/10/18 14:26:01;;;;;;;;;;;27.30;43.30;;;;;;5097223;28;20403;-78
2021/10/18 14:28:27;;;;;;;;;;;27.30;43.30;;;;;;5113210;28;19947;-80
2021/10/18 14:30:52;;;;;;;;;;;27.40;43.40;;;;;;5113492;28;20383;-81
2021/10/18 14:33:18;;;;;;;;;;;27.40;43.40;;;;;;5130755;27;20277;-80
2021/10/18 14:35:48;;;;;;;;;;;27.40;43.40;;;;;;5130807;27;19954;-81
2021/10/18 14:38:16;;;;;;;;;;;27.40;43.30;;;;;;5129871;27;19923;-78
2021/10/18 14:40:45;;;;;;;;;;;27.50;43.50;;;;;;5097200;28;19969;-79
2021/10/18 14:43:10;;;;;;;;;;;27.50;43.40;;;;;;5130608;27;19942;-81
2021/10/18 14:45:41;;;;;;;;;;;27.50;43.30;;;;;;5096175;28;20329;-79
2021/10/18 14:48:06;;;;;;;;;;;27.50;43.40;;;;;;5129787;27;19919;-80
2021/10/18 14:50:32;;;;;;;;;;;27.50;43.30;;;;;;5096900;28;19909;-77
2021/10/18 14:53:00;;;;;;;;;;;27.50;43.20;;;;;;5096912;28;19985;-78
2021/10/18 14:55:25;;;;;;;;;;;27.60;43.40;;;;;;5097191;28;19955;-80
2021/10/18 14:57:51;;;;;;;;;;;27.50;43.20;;;;;;5112990;28;20280;-78
2021/10/18 15:00:19;;;;;;;;;;;27.50;43.30;;;;;;5130130;27;20252;-78
2021/10/18 15:02:46;;;;;;;;;;;27.60;43.30;;;;;;5095494;28;20425;-80
2021/10/18 15:05:12;;;;;;;;;;;27.60;43.40;;;;;;5129771;27;19918;-76
2021/10/18 15:07:37;;;;;;;;;;;27.60;43.20;;;;;;5113241;28;20259;-78
2021/10/18 15:10:03;;;;;;;;;;;27.60;43.20;;;;;;5095671;28;19908;-76
2021/10/18 15:12:29;;;;;;;;;;;27.60;43.20;;;;;;5095722;28;19912;-79
2021/10/18 15:14:54;;;;;;;;;;;27.60;43.30;;;;;;5112726;28;19908;-78
2021/10/18 15:17:22;;;;;;;;;;;27.60;43.30;;;;;;5095736;28;19954;-78
2021/10/18 15:19:48;;;;;;;;;;;27.60;43.40;;;;;;5096583;28;19908;-79
2021/10/18 15:22:18;;;;;;;;;;;27.60;43.40;;;;;;5129190;27;19918;-77
2021/10/18 15:24:44;;;;;;;;;;;27.60;43.40;;;;;;5128263;27;20344;-78
2021/10/18 15:27:09;;;;;;;;;;;27.50;43.40;;;;;;5129093;27;19962;-77
2021/10/18 15:29:44;;;;;;;;;;;27.50;43.50;;;;;;5096111;28;19908;-77
2021/10/18 15:32:09;;;;;;;;;;;27.50;43.40;;;;;;5096124;28;20147;-77